Time;durP1;ratioP1;P1;durP2;ratioP2;P2;SDS_P1;SDS_P2;PMS_P1;PMS_P2;Temp;Humidity;BMP_temperature;BMP_pressure;BME280_temperature;BME280_humidity;BME280_pressure;Samples;Min_cycle;Max_cycle;Signal;HPM_P1;HPM_P2
2023/10/08 00:01:06;;;;;;;10.93;2.40;;;11.00;99.90;;;;;;5078013;28;20272;-50
2023/10/08 00:03:33;;;;;;;6.90;2.93;;;11.00;99.90;;;;;;5079903;28;20190;-47
2023/10/08 00:06:07;;;;;;;10.87;2.50;;;10.90;99.90;;;;;;5077586;28;20194;-48
2023/10/08 00:08:34;;;;;;;5.87;1.77;;;11.00;99.90;;;;;;5067274;28;20214;-47
2023/10/08 00:11:05;;;;;;;8.50;2.27;;;11.00;99.90;;;;;;5078725;28;20190;-49
2023/10/08 00:13:39;;;;;;;11.60;3.10;;;11.00;99.90;;;;;;5079914;28;20216;-47
2023/10/08 00:16:09;;;;;;;8.63;2.43;;;11.00;99.90;;;;;;5076385;28;20206;-50
2023/10/08 00:18:37;;;;;;;4.10;1.77;;;11.00;99.90;;;;;;5080358;28;20222;-48
2023/10/08 00:21:16;;;;;;;6.13;2.00;;;11.00;99.90;;;;;;5079909;28;20198;-50
2023/10/08 00:23:48;;;;;;;8.33;2.07;;;11.00;99.90;;;;;;5055599;28;20209;-49
2023/10/08 00:26:18;;;;;;;10.13;2.43;;;11.00;99.90;;;;;;5078994;28;20647;-48
2023/10/08 00:28:51;;;;;;;8.50;2.47;;;11.00;99.90;;;;;;5056673;28;20221;-46
2023/10/08 00:31:17;;;;;;;10.73;2.80;;;11.00;99.90;;;;;;5068602;28;20200;-54
2023/10/08 00:33:45;;;;;;;6.70;2.10;;;11.00;99.90;;;;;;5072194;28;20268;-46
2023/10/08 00:36:18;;;;;;;9.97;2.63;;;10.90;99.90;;;;;;5078808;28;20216;-48
2023/10/08 00:38:47;;;;;;;5.80;2.20;;;10.90;99.90;;;;;;5040893;28;20218;-46
2023/10/08 00:41:15;;;;;;;9.57;2.57;;;11.00;99.90;;;;;;5078567;28;20201;-49
2023/10/08 00:43:48;;;;;;;8.97;2.83;;;10.90;99.90;;;;;;5081815;28;20201;-51
2023/10/08 00:46:22;;;;;;;8.13;3.07;;;10.90;99.90;;;;;;5076292;28;20791;-47
2023/10/08 00:48:54;;;;;;;11.47;3.50;;;10.90;99.90;;;;;;5073100;28;20714;-50
2023/10/08 00:51:27;;;;;;;9.87;3.10;;;11.00;99.90;;;;;;5078385;28;20213;-50
2023/10/08 00:53:59;;;;;;;8.10;2.70;;;10.90;99.90;;;;;;5050495;28;20660;-50
2023/10/08 00:56:46;;;;;;;6.20;2.97;;;10.90;99.90;;;;;;5067756;28;20213;-50
2023/10/08 00:59:15;;;;;;;6.83;2.80;;;10.90;99.90;;;;;;5076201;28;20343;-50
2023/10/08 01:01:46;;;;;;;7.00;2.30;;;10.90;99.90;;;;;;5080956;28;20810;-46
2023/10/08 01:04:17;;;;;;;7.20;2.83;;;10.90;99.90;;;;;;5069630;28;20221;-50
2023/10/08 01:06:44;;;;;;;10.73;2.53;;;10.90;99.90;;;;;;5066561;28;20201;-48
2023/10/08 01:09:18;;;;;;;7.63;2.97;;;10.80;99.90;;;;;;5038431;28;20255;-46
2023/10/08 01:11:49;;;;;;;13.67;2.50;;;10.90;99.90;;;;;;5086834;28;20190;-46
2023/10/08 01:14:20;;;;;;;6.17;2.47;;;10.90;99.90;;;;;;5074898;28;20206;-46
2023/10/08 01:16:48;;;;;;;4.53;2.50;;;10.80;99.90;;;;;;5082990;28;20272;-49
2023/10/08 01:19:20;;;;;;;7.17;2.57;;;10.80;99.90;;;;;;5054464;28;20223;-49
2023/10/08 01:21:47;;;;;;;13.70;2.00;;;10.80;99.90;;;;;;5084324;28;20190;-49
2023/10/08 01:24:17;;;;;;;7.77;2.23;;;10.80;99.90;;;;;;5072775;28;20573;-46
2023/10/08 01:26:45;;;;;;;5.67;2.47;;;10.80;99.90;;;;;;5054946;28;20182;-50
2023/10/08 01:29:19;;;;;;;5.30;2.10;;;10.80;99.90;;;;;;5071464;28;20692;-50
2023/10/08 01:31:47;;;;;;;7.07;2.20;;;10.80;99.90;;;;;;5080946;28;20189;-49
2023/10/08 01:34:18;;;;;;;9.50;2.30;;;10.80;99.90;;;;;;5074528;28;20668;-46
2023/10/08 01:36:45;;;;;;;8.17;2.13;;;10.80;99.90;;;;;;5084973;28;20222;-48
2023/10/08 01:39:15;;;;;;;4.87;1.90;;;10.80;99.90;;;;;;5073406;28;20242;-47
2023/10/08 01:41:46;;;;;;;6.77;1.83;;;10.80;99.90;;;;;;5056795;28;20202;-47
2023/10/08 01:44:13;;;;;;;6.10;1.60;;;10.70;99.90;;;;;;5084120;28;20206;-49
2023/10/08 01:46:41;;;;;;;6.30;2.03;;;10.70;99.90;;;;;;5082351;28;20202;-48
2023/10/08 01:49:14;;;;;;;5.90;2.30;;;10.80;99.90;;;;;;5079576;28;20263;-48
2023/10/08 01:51:46;;;;;;;10.50;1.83;;;10.80;99.90;;;;;;5085854;28;20269;-48
2023/10/08 01:54:17;;;;;;;4.23;2.03;;;10.80;99.90;;;;;;5086400;28;20613;-50
2023/10/08 01:56:45;;;;;;;4.43;1.53;;;10.80;99.90;;;;;;5053832;28;20207;-49
2023/10/08 01:59:13;;;;;;;5.67;2.03;;;10.80;99.90;;;;;;5075647;28;20278;-51
2023/10/08 02:01:41;;;;;;;5.90;1.93;;;10.80;99.90;;;;;;5082070;28;20847;-48
2023/10/08 02:04:09;;;;;;;6.20;1.83;;;10.80;99.90;;;;;;5084988;28;20190;-50
2023/10/08 02:06:36;;;;;;;7.73;1.60;;;10.80;99.90;;;;;;5073045;28;20277;-46
2023/10/08 02:09:07;;;;;;;5.67;1.27;;;10.80;99.90;;;;;;5081707;28;20292;-46
2023/10/08 02:11:49;;;;;;;5.17;1.40;;;10.80;99.90;;;;;;5050440;28;22331;-48
2023/10/08 02:14:16;;;;;;;4.37;1.67;;;10.90;99.90;;;;;;5072998;28;20198;-51
2023/10/08 02:16:44;;;;;;;4.37;1.60;;;10.90;99.90;;;;;;5071543;28;20200;-47
2023/10/08 02:19:11;;;;;;;6.27;1.83;;;10.80;99.90;;;;;;5081788;28;20213;-49
2023/10/08 02:21:39;;;;;;;4.53;1.37;;;10.80;99.90;;;;;;5074098;28;20221;-48
2023/10/08 02:24:08;;;;;;;9.63;1.97;;;10.80;99.90;;;;;;5081574;28;20305;-48
2023/10/08 02:26:35;;;;;;;5.27;1.40;;;10.80;99.90;;;;;;5080895;28;20190;-47
2023/10/08 02:29:10;;;;;;;5.17;1.60;;;10.70;99.90;;;;;;5036998;28;20210;-47
2023/10/08 02:31:37;;;;;;;4.03;1.40;;;10.70;99.90;;;;;;5080365;28;20972;-47
2023/10/08 02:34:07;;;;;;;3.67;1.50;;;10.70;99.90;;;;;;5072298;28;20202;-50
2023/10/08 02:36:36;;;;;;;5.00;1.60;;;10.70;99.90;;;;;;5072066;28;20217;-49
2023/10/08 02:39:06;;;;;;;4.03;1.60;;;10.70;99.90;;;;;;5074258;28;20324;-52
2023/10/08 02:41:33;;;;;;;5.30;1.57;;;10.70;99.90;;;;;;5082494;28;20271;-53
2023/10/08 02:44:00;;;;;;;7.07;1.63;;;10.70;99.90;;;;;;5054350;28;20670;-46
2023/10/08 02:46:32;;;;;;;6.07;1.20;;;10.70;99.90;;;;;;5080674;28;20194;-49
2023/10/08 02:49:03;;;;;;;8.50;1.73;;;10.70;99.90;;;;;;5072964;28;20229;-47
2023/10/08 02:51:30;;;;;;;5.37;1.60;;;10.70;99.90;;;;;;5059957;28;20234;-47
2023/10/08 02:53:57;;;;;;;14.33;2.00;;;10.60;99.90;;;;;;5077348;28;20198;-48
2023/10/08 02:56:24;;;;;;;8.10;1.40;;;10.60;99.90;;;;;;5080729;28;20251;-48
2023/10/08 02:58:51;;;;;;;3.97;1.37;;;10.60;99.90;;;;;;5083325;28;20298;-47
2023/10/08 03:01:18;;;;;;;8.97;1.20;;;10.60;99.90;;;;;;5036635;28;20209;-49
2023/10/08 03:03:47;;;;;;;3.87;1.40;;;10.60;99.90;;;;;;5075093;28;20916;-48
2023/10/08 03:06:14;;;;;;;2.43;1.50;;;10.60;99.90;;;;;;5069154;28;20198;-48
2023/10/08 03:08:41;;;;;;;3.50;1.67;;;10.60;99.90;;;;;;5059670;28;20209;-47
2023/10/08 03:11:16;;;;;;;7.13;1.60;;;10.60;99.90;;;;;;5076449;28;20194;-48
2023/10/08 03:13:46;;;;;;;2.63;1.00;;;10.60;99.90;;;;;;5081247;28;20190;-49
2023/10/08 03:16:14;;;;;;;7.50;1.93;;;10.70;99.90;;;;;;5051407;28;20205;-49
2023/10/08 03:18:44;;;;;;;2.97;1.30;;;10.60;99.90;;;;;;5072580;28;20218;-52
2023/10/08 03:21:22;;;;;;;2.23;1.23;;;10.60;99.90;;;;;;5086413;28;20219;-48
2023/10/08 03:23:50;;;;;;;7.07;1.57;;;10.60;99.90;;;;;;5064511;28;20313;-50
2023/10/08 03:26:33;;;;;;;5.87;1.50;;;10.50;99.90;;;;;;5079738;28;20265;-48
2023/10/08 03:29:08;;;;;;;7.20;1.60;;;10.60;99.90;;;;;;5070242;28;20312;-49
2023/10/08 03:31:50;;;;;;;4.33;1.27;;;10.60;99.90;;;;;;5053470;28;20208;-46
2023/10/08 03:34:20;;;;;;;6.00;1.93;;;10.50;99.90;;;;;;5070477;28;20245;-51
2023/10/08 03:36:50;;;;;;;3.43;1.40;;;10.50;99.90;;;;;;5079992;28;20198;-46
2023/10/08 03:39:18;;;;;;;4.93;1.43;;;10.50;99.90;;;;;;5070695;28;21200;-46
2023/10/08 03:41:59;;;;;;;5.80;1.27;;;10.50;99.90;;;;;;5080298;28;20201;-48
2023/10/08 03:44:29;;;;;;;5.57;1.27;;;10.50;99.90;;;;;;5081445;28;20178;-46
2023/10/08 03:46:57;;;;;;;6.03;1.47;;;10.40;99.90;;;;;;5051141;28;20206;-49
2023/10/08 03:49:28;;;;;;;5.57;1.63;;;10.40;99.90;;;;;;5080512;28;20316;-47
2023/10/08 03:51:57;;;;;;;5.10;1.40;;;10.40;99.90;;;;;;5083371;28;20212;-52
2023/10/08 03:54:33;;;;;;;2.00;0.90;;;10.40;99.90;;;;;;5063006;28;20202;-49
2023/10/08 03:57:01;;;;;;;3.63;1.03;;;10.30;99.90;;;;;;5082265;28;20198;-49
2023/10/08 03:59:34;;;;;;;3.23;1.10;;;10.40;99.90;;;;;;5076611;28;20224;-51
2023/10/08 04:02:10;;;;;;;3.53;1.00;;;10.40;99.90;;;;;;5050019;28;20204;-49
2023/10/08 04:04:50;;;;;;;6.07;1.10;;;10.40;99.90;;;;;;5078919;28;20194;-47
2023/10/08 04:07:28;;;;;;;2.67;1.10;;;10.40;99.90;;;;;;5077388;28;20205;-47
2023/10/08 04:10:16;;;;;;;6.30;1.00;;;10.40;99.90;;;;;;5075213;28;20267;-49
2023/10/08 04:12:44;;;;;;;6.60;0.90;;;10.40;99.90;;;;;;5078886;28;20182;-48
2023/10/08 04:15:12;;;;;;;2.23;0.90;;;10.40;99.90;;;;;;5082107;28;20599;-49
2023/10/08 04:17:44;;;;;;;8.83;1.33;;;10.40;99.90;;;;;;5056198;28;20903;-47
2023/10/08 04:20:30;;;;;;;1.00;0.80;;;10.40;99.90;;;;;;5081409;28;20241;-49
2023/10/08 04:23:00;;;;;;;6.60;1.33;;;10.40;99.90;;;;;;5073750;28;20205;-50
2023/10/08 04:25:28;;;;;;;6.27;1.10;;;10.40;99.90;;;;;;5071044;28;20198;-48
2023/10/08 04:27:58;;;;;;;3.80;1.00;;;10.30;99.90;;;;;;5082332;28;20198;-50
2023/10/08 04:30:32;;;;;;;3.17;1.07;;;10.20;99.90;;;;;;5079591;28;20287;-51
2023/10/08 04:33:06;;;;;;;7.00;1.53;;;10.30;99.90;;;;;;5051329;28;20213;-48
2023/10/08 04:35:36;;;;;;;1.97;1.47;;;10.30;99.90;;;;;;5075174;28;20208;-50
2023/10/08 04:38:08;;;;;;;3.63;1.40;;;10.20;99.90;;;;;;5087834;28;20210;-50
2023/10/08 04:40:41;;;;;;;8.07;1.80;;;10.30;99.90;;;;;;5069655;28;20319;-50
2023/10/08 04:43:10;;;;;;;4.67;0.90;;;10.20;99.90;;;;;;5079638;28;20276;-48
2023/10/08 04:45:37;;;;;;;3.33;1.53;;;10.20;99.90;;;;;;5078289;28;21022;-47
2023/10/08 04:48:09;;;;;;;2.77;0.90;;;10.20;99.90;;;;;;5051428;28;20548;-46
2023/10/08 04:50:37;;;;;;;3.43;1.20;;;10.20;99.90;;;;;;5078670;28;20957;-46
2023/10/08 04:53:07;;;;;;;4.40;1.10;;;10.20;99.90;;;;;;5081508;28;20297;-48
2023/10/08 04:55:35;;;;;;;3.10;1.07;;;10.10;99.90;;;;;;5069790;28;20226;-46
2023/10/08 04:58:12;;;;;;;2.63;1.00;;;10.20;99.90;;;;;;5082220;28;20263;-49
2023/10/08 05:00:53;;;;;;;2.37;1.10;;;10.20;99.90;;;;;;5077699;28;20190;-46
2023/10/08 05:03:22;;;;;;;4.93;1.10;;;10.10;99.90;;;;;;5048867;28;20700;-51
2023/10/08 05:06:07;;;;;;;4.47;1.10;;;10.20;99.90;;;;;;5072162;28;20716;-45
2023/10/08 05:08:47;;;;;;;3.97;1.07;;;10.20;99.90;;;;;;5068146;28;20225;-45
2023/10/08 05:11:36;;;;;;;3.93;1.00;;;10.20;99.90;;;;;;5067298;28;20202;-49
2023/10/08 05:14:16;;;;;;;3.00;1.00;;;10.20;99.90;;;;;;5077867;28;20198;-45
2023/10/08 05:17:00;;;;;;;4.87;1.03;;;10.20;99.90;;;;;;5078963;28;20682;-49
2023/10/08 05:19:48;;;;;;;2.93;1.07;;;10.20;99.90;;;;;;5043907;28;20955;-49
2023/10/08 05:22:33;;;;;;;4.93;1.40;;;10.10;99.90;;;;;;5075277;28;20675;-47
2023/10/08 05:25:24;;;;;;;2.97;0.70;;;10.10;99.90;;;;;;5068360;28;20194;-49
2023/10/08 05:27:58;;;;;;;2.40;1.07;;;10.10;99.90;;;;;;5078815;28;20200;-44
2023/10/08 05:30:28;;;;;;;2.13;1.20;;;10.10;99.90;;;;;;5071655;28;20700;-46
2023/10/08 05:33:12;;;;;;;2.20;1.10;;;10.10;99.90;;;;;;5082338;28;20285;-47
2023/10/08 05:35:54;;;;;;;3.03;0.80;;;10.10;99.90;;;;;;5052529;28;20706;-45
2023/10/08 05:38:23;;;;;;;3.90;1.00;;;10.10;99.90;;;;;;5075351;28;20218;-48
2023/10/08 05:41:16;;;;;;;3.40;1.53;;;10.10;99.90;;;;;;5074042;28;20529;-48
2023/10/08 05:43:55;;;;;;;2.97;0.87;;;10.10;99.90;;;;;;5079722;28;20202;-44
2023/10/08 05:46:47;;;;;;;3.27;1.03;;;10.00;99.90;;;;;;5066380;28;20182;-51
2023/10/08 05:49:26;;;;;;;3.27;0.90;;;10.00;99.90;;;;;;5045049;28;23056;-47
2023/10/08 05:55:14;;;;;;;2.30;0.93;;;10.00;99.90;;;;;;5004239;28;20203;-51
2023/10/08 05:57:46;;;;;;;2.90;1.00;;;10.00;99.90;;;;;;5064599;28;20229;-49
2023/10/08 06:03:09;;;;;;;5.87;1.40;;;9.80;99.90;;;;;;5068036;28;20194;-49
2023/10/08 06:05:47;;;;;;;2.33;1.07;;;9.80;99.90;;;;;;5051848;28;20297;-46
2023/10/08 06:08:14;;;;;;;2.10;0.90;;;9.80;99.90;;;;;;5075834;28;20217;-45
2023/10/08 06:10:56;;;;;;;4.43;1.73;;;9.90;99.90;;;;;;5070576;28;20201;-48
2023/10/08 06:13:44;;;;;;;2.27;0.90;;;9.80;99.90;;;;;;5074241;28;20209;-50
2023/10/08 06:16:13;;;;;;;3.33;1.43;;;9.80;99.90;;;;;;5074137;28;20201;-50
2023/10/08 06:18:40;;;;;;;4.57;1.20;;;9.80;99.90;;;;;;5070965;28;20229;-46
2023/10/08 06:21:08;;;;;;;2.50;1.07;;;9.80;99.90;;;;;;5053987;28;20231;-47
2023/10/08 06:23:36;;;;;;;1.97;1.00;;;9.70;99.90;;;;;;5077847;28;20485;-48
2023/10/08 06:26:13;;;;;;;3.80;1.00;;;9.70;99.90;;;;;;5082924;28;20202;-46
2023/10/08 06:28:43;;;;;;;3.23;1.10;;;9.80;99.90;;;;;;5060344;28;20767;-46
2023/10/08 06:31:16;;;;;;;3.30;1.00;;;9.80;99.90;;;;;;5074127;28;20202;-50
2023/10/08 06:33:43;;;;;;;2.30;1.17;;;9.80;99.90;;;;;;5089661;28;20248;-47
2023/10/08 06:36:15;;;;;;;2.53;1.10;;;9.80;99.90;;;;;;5040535;28;20362;-48
2023/10/08 06:38:43;;;;;;;4.97;2.20;;;9.80;99.90;;;;;;5083903;28;20221;-48
2023/10/08 06:41:17;;;;;;;6.53;1.40;;;9.80;99.90;;;;;;5073922;28;20209;-45
2023/10/08 06:43:49;;;;;;;3.63;1.40;;;9.80;99.90;;;;;;5076059;28;20202;-51
2023/10/08 06:46:18;;;;;;;3.40;1.07;;;9.80;99.90;;;;;;5058495;28;20202;-49
2023/10/08 06:48:49;;;;;;;5.37;1.33;;;9.80;99.90;;;;;;5079323;28;20297;-47
2023/10/08 06:51:17;;;;;;;1.37;1.17;;;9.90;99.90;;;;;;5048707;28;20580;-48
2023/10/08 06:53:46;;;;;;;3.83;1.10;;;9.90;99.90;;;;;;5086629;28;20202;-45
2023/10/08 06:56:13;;;;;;;2.13;1.03;;;9.90;99.90;;;;;;5080962;28;20251;-49
2023/10/08 06:58:45;;;;;;;2.83;0.90;;;10.00;99.90;;;;;;5071848;28;20218;-46
2023/10/08 07:01:13;;;;;;;2.17;1.30;;;10.00;99.90;;;;;;5061777;28;20277;-48
2023/10/08 07:03:40;;;;;;;5.87;1.27;;;10.00;99.90;;;;;;5077714;28;20684;-50
2023/10/08 07:06:25;;;;;;;3.17;1.10;;;10.10;99.90;;;;;;5066256;28;20209;-50
2023/10/08 07:08:54;;;;;;;1.47;1.20;;;10.10;99.90;;;;;;5084054;28;20506;-51
2023/10/08 07:11:22;;;;;;;3.93;1.50;;;10.10;99.90;;;;;;5074864;28;20196;-50
2023/10/08 07:13:50;;;;;;;2.90;1.10;;;10.10;99.90;;;;;;5076041;28;20262;-52
2023/10/08 07:16:20;;;;;;;2.47;1.07;;;10.10;99.90;;;;;;5066390;28;20280;-49
2023/10/08 07:18:52;;;;;;;2.63;1.10;;;10.10;99.90;;;;;;5079405;28;20770;-46
2023/10/08 07:21:23;;;;;;;4.70;1.10;;;10.10;99.90;;;;;;5073889;28;20247;-50
2023/10/08 07:24:00;;;;;;;4.90;1.43;;;10.20;99.90;;;;;;5054875;28;20217;-49
2023/10/08 07:26:35;;;;;;;2.53;1.10;;;10.20;99.90;;;;;;5078987;28;20274;-46
2023/10/08 07:29:07;;;;;;;3.17;1.00;;;10.30;99.90;;;;;;5068849;28;20233;-49
2023/10/08 07:31:37;;;;;;;3.40;0.90;;;10.40;99.90;;;;;;5071354;28;20194;-49
2023/10/08 07:34:15;;;;;;;3.90;1.03;;;10.40;99.90;;;;;;5072920;28;20205;-48
2023/10/08 07:36:43;;;;;;;4.13;1.30;;;10.40;99.90;;;;;;5076876;28;20198;-49
2023/10/08 07:39:23;;;;;;;2.03;1.30;;;10.50;99.90;;;;;;5047688;28;20630;-48
2023/10/08 07:41:50;;;;;;;3.70;0.90;;;10.50;99.90;;;;;;5085395;28;20185;-46
2023/10/08 07:44:20;;;;;;;4.20;1.00;;;10.60;99.90;;;;;;5067464;28;20209;-51
2023/10/08 07:46:50;;;;;;;2.43;0.90;;;10.70;99.90;;;;;;5071409;28;20213;-51
2023/10/08 07:49:17;;;;;;;3.13;1.03;;;10.90;99.90;;;;;;5075055;28;20230;-50
2023/10/08 07:51:50;;;;;;;4.10;1.00;;;10.90;99.90;;;;;;5085490;28;20196;-46
2023/10/08 07:54:19;;;;;;;4.47;1.00;;;11.00;99.90;;;;;;5042665;28;20213;-48
2023/10/08 07:56:47;;;;;;;4.60;1.00;;;11.00;99.90;;;;;;5084385;28;20704;-46
2023/10/08 07:59:16;;;;;;;6.53;1.00;;;11.00;99.90;;;;;;5072392;28;20696;-49
2023/10/08 08:01:43;;;;;;;2.50;1.00;;;11.10;99.90;;;;;;5070059;28;20244;-48
2023/10/08 08:04:21;;;;;;;2.67;1.00;;;11.20;99.90;;;;;;5064106;28;20611;-49
2023/10/08 08:06:50;;;;;;;3.63;1.03;;;11.20;99.90;;;;;;5081826;28;20686;-45
2023/10/08 08:09:19;;;;;;;4.30;0.90;;;11.20;99.90;;;;;;5043182;28;20703;-46
2023/10/08 08:11:47;;;;;;;2.67;0.90;;;11.20;99.90;;;;;;5082632;28;20909;-49
2023/10/08 08:14:16;;;;;;;2.40;1.07;;;11.20;99.90;;;;;;5072422;28;20198;-47
2023/10/08 08:16:47;;;;;;;4.60;0.90;;;11.10;99.90;;;;;;5075685;28;20213;-46
2023/10/08 08:19:16;;;;;;;2.90;1.43;;;11.20;99.90;;;;;;5049439;28;20344;-49
2023/10/08 08:21:47;;;;;;;2.53;1.17;;;11.30;99.90;;;;;;5082970;28;20189;-46
2023/10/08 08:24:28;;;;;;;4.10;0.83;;;11.30;99.90;;;;;;5043107;28;20214;-48
2023/10/08 08:27:08;;;;;;;3.60;0.70;;;11.40;99.90;;;;;;5068448;28;20220;-50
2023/10/08 08:29:44;;;;;;;2.63;0.83;;;11.50;99.90;;;;;;5072488;28;20217;-48
2023/10/08 08:32:12;;;;;;;2.83;0.90;;;11.60;99.90;;;;;;5065569;28;20190;-49
2023/10/08 08:34:43;;;;;;;2.83;1.37;;;11.60;99.90;;;;;;5062853;28;20204;-46
2023/10/08 08:37:11;;;;;;;2.43;0.80;;;11.60;99.90;;;;;;5077221;28;20244;-50
2023/10/08 08:39:38;;;;;;;3.17;0.60;;;11.60;99.90;;;;;;5050861;28;20222;-50
2023/10/08 08:42:05;;;;;;;3.23;0.73;;;11.60;99.90;;;;;;5072199;28;20235;-49
2023/10/08 08:44:36;;;;;;;3.20;1.17;;;11.60;99.90;;;;;;5087479;28;20209;-45
2023/10/08 08:47:04;;;;;;;1.83;0.60;;;11.70;99.90;;;;;;5080658;28;20580;-46
2023/10/08 08:49:37;;;;;;;3.07;0.70;;;11.70;99.90;;;;;;5063305;28;21065;-49
2023/10/08 08:52:05;;;;;;;2.00;0.60;;;11.60;99.90;;;;;;5077745;28;20634;-48
2023/10/08 08:54:32;;;;;;;2.73;1.00;;;11.60;99.90;;;;;;5081320;28;20712;-48
2023/10/08 08:57:04;;;;;;;2.33;0.80;;;11.80;99.90;;;;;;5043139;28;20201;-48
2023/10/08 08:59:31;;;;;;;3.03;0.80;;;11.90;99.90;;;;;;5081340;28;20216;-51
2023/10/08 09:02:00;;;;;;;8.27;1.40;;;12.00;99.90;;;;;;5081518;28;20212;-47
2023/10/08 09:04:30;;;;;;;2.10;0.80;;;12.00;99.90;;;;;;5069481;28;20194;-49
2023/10/08 09:06:58;;;;;;;2.30;0.67;;;12.10;99.90;;;;;;5079655;28;20206;-49
2023/10/08 09:09:32;;;;;;;2.83;0.80;;;12.40;99.90;;;;;;5080332;28;20216;-49
2023/10/08 09:12:00;;;;;;;2.70;0.63;;;12.60;99.90;;;;;;5035188;28;20280;-48
2023/10/08 09:14:31;;;;;;;1.37;0.70;;;12.70;99.90;;;;;;5076074;28;20236;-48
2023/10/08 09:17:04;;;;;;;1.90;0.83;;;12.70;99.90;;;;;;5070128;28;20587;-45
2023/10/08 09:19:36;;;;;;;3.07;1.27;;;12.70;99.90;;;;;;5072911;28;20241;-47
2023/10/08 09:22:04;;;;;;;5.03;0.97;;;12.80;99.90;;;;;;5070885;28;20250;-46
2023/10/08 09:24:36;;;;;;;2.50;0.73;;;12.80;99.90;;;;;;5082300;28;20216;-47
2023/10/08 09:27:03;;;;;;;2.47;0.80;;;12.80;99.90;;;;;;5043690;28;20432;-49
2023/10/08 09:29:31;;;;;;;1.50;0.80;;;13.00;99.90;;;;;;5074034;28;20704;-47
2023/10/08 09:31:58;;;;;;;2.20;0.60;;;13.00;99.90;;;;;;5071773;28;20210;-46
2023/10/08 09:34:28;;;;;;;1.43;0.67;;;13.00;99.90;;;;;;5062830;28;20210;-45
2023/10/08 09:36:57;;;;;;;2.10;0.80;;;13.00;99.90;;;;;;5062780;28;20942;-45
2023/10/08 09:39:26;;;;;;;2.20;0.50;;;12.90;99.90;;;;;;5076490;28;20245;-48
2023/10/08 09:41:56;;;;;;;0.80;0.53;;;12.90;99.90;;;;;;5055080;28;20224;-45
2023/10/08 09:44:25;;;;;;;2.10;0.97;;;13.00;99.90;;;;;;5076741;28;20211;-47
2023/10/08 09:46:55;;;;;;;1.90;0.70;;;13.00;99.90;;;;;;5083112;28;20198;-46
2023/10/08 09:49:31;;;;;;;1.47;0.67;;;12.90;99.90;;;;;;5076908;28;20299;-45
2023/10/08 09:52:01;;;;;;;4.40;0.57;;;12.90;99.90;;;;;;5067460;28;20289;-45
2023/10/08 09:54:33;;;;;;;1.53;0.50;;;13.00;99.90;;;;;;5082213;28;20204;-50
2023/10/08 09:57:06;;;;;;;2.00;0.47;;;13.10;99.90;;;;;;5051978;28;20342;-49
2023/10/08 09:59:34;;;;;;;2.63;0.57;;;13.20;99.90;;;;;;5090963;28;20237;-50
2023/10/08 10:02:02;;;;;;;2.10;0.70;;;13.20;99.90;;;;;;5070938;28;20209;-47
2023/10/08 10:04:32;;;;;;;1.97;0.70;;;13.20;99.90;;;;;;5072877;28;20282;-48
2023/10/08 10:07:08;;;;;;;1.77;0.60;;;13.30;99.90;;;;;;5067442;28;20632;-45
2023/10/08 10:09:36;;;;;;;7.20;0.57;;;13.30;99.90;;;;;;5074228;28;20221;-49
2023/10/08 10:12:09;;;;;;;2.73;0.60;;;13.30;99.90;;;;;;5082543;28;20566;-48
2023/10/08 10:14:43;;;;;;;1.80;0.57;;;13.30;99.90;;;;;;5062599;28;20285;-48
2023/10/08 10:17:14;;;;;;;2.40;0.70;;;13.40;99.90;;;;;;5083724;28;20278;-48
2023/10/08 10:19:45;;;;;;;1.37;0.40;;;13.40;99.90;;;;;;5075097;28;20249;-47
2023/10/08 10:22:16;;;;;;;2.43;0.60;;;13.40;99.90;;;;;;5074482;28;20612;-48
2023/10/08 10:24:45;;;;;;;1.23;0.73;;;13.40;99.90;;;;;;5080068;28;20190;-50
2023/10/08 10:27:15;;;;;;;1.90;0.50;;;13.60;99.90;;;;;;5073094;28;20201;-47
2023/10/08 10:29:44;;;;;;;0.73;0.70;;;13.60;99.90;;;;;;5072074;28;20221;-47
2023/10/08 10:32:14;;;;;;;0.90;0.40;;;13.60;99.90;;;;;;5089236;28;20270;-47
2023/10/08 10:34:43;;;;;;;1.87;0.87;;;13.70;99.90;;;;;;5076505;28;20210;-48
2023/10/08 10:37:19;;;;;;;1.53;0.53;;;13.70;99.90;;;;;;5078521;28;20196;-49
2023/10/08 10:39:53;;;;;;;0.73;0.70;;;13.80;99.90;;;;;;5079303;28;20229;-46
2023/10/08 10:42:22;;;;;;;2.03;0.60;;;13.80;99.90;;;;;;5081537;28;20204;-49
2023/10/08 10:44:50;;;;;;;1.83;0.67;;;13.80;99.90;;;;;;5053991;28;20277;-48
2023/10/08 10:47:27;;;;;;;2.27;0.50;;;13.60;99.90;;;;;;5082971;28;20194;-49
2023/10/08 10:50:11;;;;;;;2.00;0.80;;;13.70;99.90;;;;;;5075250;28;20217;-51
2023/10/08 10:52:44;;;;;;;2.37;0.67;;;13.80;99.90;;;;;;5069379;28;20472;-48
2023/10/08 10:55:21;;;;;;;2.40;0.83;;;13.80;99.90;;;;;;5064523;28;20679;-51
2023/10/08 10:57:55;;;;;;;2.97;0.87;;;13.90;99.90;;;;;;5079699;28;20273;-47
2023/10/08 11:03:16;;;;;;;1.67;0.80;;;13.80;99.90;;;;;;5083569;28;20248;-50
2023/10/08 11:05:49;;;;;;;1.60;0.50;;;14.00;99.90;;;;;;5078105;28;20205;-47
2023/10/08 11:08:18;;;;;;;2.63;0.60;;;14.00;99.90;;;;;;5064596;28;23544;-48
2023/10/08 11:10:50;;;;;;;2.23;1.00;;;14.20;99.90;;;;;;5074902;28;20198;-47
2023/10/08 11:13:20;;;;;;;1.83;0.60;;;14.50;99.90;;;;;;5066941;28;20193;-48
2023/10/08 11:15:51;;;;;;;3.97;0.70;;;14.60;99.90;;;;;;5051810;28;20209;-49
2023/10/08 11:18:20;;;;;;;0.50;0.47;;;14.60;99.90;;;;;;5079554;28;20197;-46
2023/10/08 11:20:53;;;;;;;1.60;0.70;;;14.60;99.90;;;;;;5084901;28;20210;-49
2023/10/08 11:23:34;;;;;;;3.03;0.60;;;14.70;99.90;;;;;;5074997;28;20260;-46
2023/10/08 11:26:03;;;;;;;1.73;0.77;;;14.70;99.90;;;;;;5072633;28;20205;-48
2023/10/08 11:28:33;;;;;;;0.80;0.50;;;14.70;99.90;;;;;;5068067;28;20213;-45
2023/10/08 11:31:07;;;;;;;3.53;1.17;;;14.90;99.90;;;;;;5052852;28;20186;-49
2023/10/08 11:33:36;;;;;;;2.60;0.80;;;15.00;99.90;;;;;;5078434;28;20779;-49
2023/10/08 11:36:06;;;;;;;1.30;0.70;;;15.10;99.90;;;;;;5076606;28;20224;-47
2023/10/08 11:38:41;;;;;;;2.40;1.30;;;15.00;99.90;;;;;;5074705;28;20206;-52
2023/10/08 11:41:20;;;;;;;1.70;0.50;;;15.00;99.90;;;;;;5067652;28;20206;-49
2023/10/08 11:43:53;;;;;;;1.60;0.83;;;15.00;99.90;;;;;;5063633;28;20206;-50
2023/10/08 11:46:32;;;;;;;1.33;0.40;;;15.00;99.90;;;;;;5052060;28;20210;-51
2023/10/08 11:49:04;;;;;;;0.70;0.50;;;14.90;99.90;;;;;;5079850;28;20302;-47
2023/10/08 11:51:32;;;;;;;0.57;0.50;;;14.90;99.90;;;;;;5083297;28;20994;-49
2023/10/08 11:54:00;;;;;;;1.40;0.40;;;14.90;99.90;;;;;;5070985;28;20676;-49
2023/10/08 11:56:27;;;;;;;1.07;0.70;;;14.90;99.90;;;;;;5083163;28;20613;-47
2023/10/08 11:58:56;;;;;;;1.00;0.50;;;14.90;99.90;;;;;;5075484;28;20272;-48
2023/10/08 12:01:24;;;;;;;0.73;0.50;;;14.90;99.90;;;;;;5083509;28;20228;-48
2023/10/08 12:03:52;;;;;;;0.83;0.60;;;14.90;99.90;;;;;;5038265;28;20281;-53
2023/10/08 12:06:19;;;;;;;1.37;0.70;;;15.00;99.90;;;;;;5081767;28;20202;-51
2023/10/08 12:08:46;;;;;;;2.67;0.73;;;15.10;99.90;;;;;;5068810;28;20991;-48
2023/10/08 12:11:14;;;;;;;1.00;0.77;;;15.10;99.90;;;;;;5071727;28;20275;-47
2023/10/08 12:13:44;;;;;;;1.10;0.80;;;15.20;99.90;;;;;;5079274;28;20191;-48
2023/10/08 12:16:22;;;;;;;1.47;0.50;;;15.30;99.90;;;;;;5074205;28;20198;-47
2023/10/08 12:18:53;;;;;;;1.40;0.60;;;15.20;99.90;;;;;;5047572;28;20904;-46
2023/10/08 12:21:21;;;;;;;0.73;0.60;;;15.00;99.90;;;;;;5083512;28;20630;-49
2023/10/08 12:23:51;;;;;;;1.77;0.70;;;15.00;99.90;;;;;;5069584;28;20309;-46
2023/10/08 12:26:18;;;;;;;1.10;0.60;;;15.10;99.90;;;;;;5082094;28;20190;-47
2023/10/08 12:28:48;;;;;;;0.63;0.63;;;15.10;99.90;;;;;;5070864;28;20216;-47
2023/10/08 12:31:16;;;;;;;4.00;0.80;;;15.20;99.90;;;;;;5073705;28;20198;-46
2023/10/08 12:33:44;;;;;;;1.37;0.60;;;15.10;99.90;;;;;;5047865;28;20224;-45
2023/10/08 12:36:12;;;;;;;2.37;0.73;;;15.00;99.90;;;;;;5082834;28;20323;-46
2023/10/08 12:38:41;;;;;;;1.47;0.93;;;15.00;99.90;;;;;;5070874;28;20214;-52
2023/10/08 12:41:18;;;;;;;2.13;0.53;;;15.00;99.90;;;;;;5082672;28;20213;-45
2023/10/08 12:43:46;;;;;;;0.90;0.50;;;15.10;99.90;;;;;;5069769;28;20193;-48
2023/10/08 12:46:23;;;;;;;2.97;0.70;;;15.10;99.90;;;;;;5076657;28;20209;-50
2023/10/08 12:48:53;;;;;;;1.50;0.60;;;15.10;99.90;;;;;;5045976;28;21037;-48
2023/10/08 12:51:23;;;;;;;0.70;0.60;;;14.90;99.90;;;;;;5078505;28;20206;-47
2023/10/08 12:53:58;;;;;;;1.83;0.80;;;14.90;99.90;;;;;;5065113;28;20201;-45
2023/10/08 12:56:31;;;;;;;1.47;0.60;;;15.00;99.90;;;;;;5070675;28;20738;-46
2023/10/08 12:58:58;;;;;;;2.00;0.70;;;15.00;99.90;;;;;;5074496;28;20225;-44
2023/10/08 13:01:28;;;;;;;1.10;0.50;;;15.00;99.90;;;;;;5074913;28;20218;-47
2023/10/08 13:04:00;;;;;;;0.90;0.60;;;14.90;99.90;;;;;;5080942;28;20261;-46
2023/10/08 13:06:29;;;;;;;0.90;0.60;;;14.80;99.90;;;;;;5049662;28;20206;-48
2023/10/08 13:08:56;;;;;;;0.70;0.70;;;14.80;99.90;;;;;;5083911;28;20221;-50
2023/10/08 13:11:24;;;;;;;0.83;0.60;;;14.80;99.90;;;;;;5077010;28;20243;-49
2023/10/08 13:13:51;;;;;;;1.37;0.97;;;14.80;99.90;;;;;;5085673;28;20883;-48
2023/10/08 13:16:21;;;;;;;3.87;0.70;;;14.80;99.90;;;;;;5074065;28;20205;-52
2023/10/08 13:18:47;;;;;;;1.87;0.80;;;14.80;99.90;;;;;;5078483;28;21016;-48